createdAt,value
2018-08-12T00:00:23.825Z,101003.37
2018-08-12T00:02:52.808Z,101002.05
2018-08-12T00:05:21.451Z,101007.14
2018-08-12T00:07:50.048Z,100999.47
2018-08-12T00:10:19.172Z,101005.91
2018-08-12T00:12:47.753Z,100998.94
2018-08-12T00:15:17.980Z,100996.55
2018-08-12T00:17:46.959Z,101002.68
2018-08-12T00:20:17.386Z,100996.66
2018-08-12T00:22:48.626Z,100988.89
2018-08-12T00:25:19.022Z,100995.91
2018-08-12T00:27:47.548Z,100988.17
2018-08-12T00:30:17.124Z,100979.29
2018-08-12T00:32:46.184Z,100982.70
2018-08-12T00:35:16.028Z,100978.09
2018-08-12T00:37:44.713Z,100981.02
2018-08-12T00:40:14.797Z,100975.31
2018-08-12T00:42:47.565Z,100973.43
2018-08-12T00:45:19.595Z,100969.19
2018-08-12T00:47:49.025Z,100973.53
2018-08-12T00:50:18.271Z,100973.08
2018-08-12T00:52:46.950Z,100972.57
2018-08-12T00:55:21.852Z,100966.66
2018-08-12T00:57:50.391Z,100963.16
2018-08-12T01:00:20.630Z,100964.62
2018-08-12T01:02:49.636Z,100957.22
2018-08-12T01:05:18.929Z,100962.58
2018-08-12T01:07:48.423Z,100956.77
2018-08-12T01:10:19.052Z,100957.12
2018-08-12T01:12:54.292Z,100959.43
2018-08-12T01:15:23.462Z,100960.75
2018-08-12T01:17:55.728Z,100959.58
2018-08-12T01:20:25.810Z,100962.23
2018-08-12T01:22:54.934Z,100962.62
2018-08-12T01:25:23.788Z,100960.42
2018-08-12T01:27:52.437Z,100957.50
2018-08-12T01:30:22.229Z,100957.05
2018-08-12T01:32:50.851Z,100946.27
2018-08-12T01:35:19.712Z,100947.72
2018-08-12T01:37:49.258Z,100943.36
2018-08-12T01:40:20.758Z,100945.78
2018-08-12T01:42:49.359Z,100943.23
2018-08-12T01:45:23.580Z,100939.73
2018-08-12T01:47:52.471Z,100938.64
2018-08-12T01:50:21.313Z,100944.80
2018-08-12T01:52:50.478Z,100948.80
2018-08-12T01:55:19.012Z,100933.90
2018-08-12T01:57:47.526Z,100932.09
2018-08-12T02:00:29.457Z,100939.95
2018-08-12T02:02:58.046Z,100932.19
2018-08-12T02:05:27.184Z,100936.43
2018-08-12T02:07:55.758Z,100934.88
2018-08-12T02:10:24.311Z,100934.27
2018-08-12T02:12:53.559Z,100921.47
2018-08-12T02:15:22.148Z,100918.92
2018-08-12T02:20:31.503Z,100909.23
2018-08-12T02:23:00.103Z,100913.23
2018-08-12T02:25:28.711Z,100908.86
2018-08-12T02:27:57.913Z,100910.19
2018-08-12T02:30:26.545Z,100909.13
2018-08-12T02:32:55.206Z,100903.62
2018-08-12T02:35:27.732Z,100905.17
2018-08-12T02:37:56.491Z,100905.55
2018-08-12T02:40:27.187Z,100907.61
2018-08-12T02:42:55.762Z,100904.44
2018-08-12T02:45:24.375Z,100899.65
2018-08-12T02:47:53.359Z,100895.95
2018-08-12T02:50:24.870Z,100899.19
2018-08-12T02:52:53.435Z,100898.34
2018-08-12T02:55:22.096Z,100895.27
2018-08-12T02:57:50.712Z,100888.73
2018-08-12T03:00:19.670Z,100882.86
2018-08-12T03:02:48.347Z,100882.09
2018-08-12T03:05:16.968Z,100878.21
2018-08-12T03:07:48.825Z,100879.06
2018-08-12T03:10:18.317Z,100880.72
2018-08-12T03:12:46.986Z,100885.20
2018-08-12T03:15:19.425Z,100885.69
2018-08-12T03:17:48.167Z,100882.45
2018-08-12T03:20:22.134Z,100877.61
2018-08-12T03:22:51.189Z,100879.20
2018-08-12T03:25:19.890Z,100875.62
2018-08-12T03:30:26.429Z,100869.11
2018-08-12T03:32:54.909Z,100877.73
2018-08-12T03:35:23.643Z,100870.39
2018-08-12T03:37:52.754Z,100879.31
2018-08-12T03:40:21.528Z,100873.95
2018-08-12T03:42:50.124Z,100869.09
2018-08-12T03:45:19.124Z,100865.37
2018-08-12T03:47:47.719Z,100863.67
2018-08-12T03:50:16.608Z,100868.64
2018-08-12T03:52:45.621Z,100872.25
2018-08-12T03:55:14.316Z,100866.87
2018-08-12T03:57:42.871Z,100867.30
2018-08-12T04:00:17.069Z,100859.94
2018-08-12T04:02:49.381Z,100848.52
2018-08-12T04:05:18.907Z,100846.12
2018-08-12T04:07:47.662Z,100845.52
2018-08-12T04:10:21.420Z,100850.83
2018-08-12T04:12:51.207Z,100844.58
2018-08-12T04:15:22.926Z,100836.30
2018-08-12T04:20:31.843Z,100848.43
2018-08-12T04:23:00.421Z,100846.12
2018-08-12T04:25:29.007Z,100843.46
2018-08-12T04:28:08.912Z,100847.31
2018-08-12T04:30:37.858Z,100842.00
2018-08-12T04:33:07.539Z,100847.05
2018-08-12T04:35:36.075Z,100841.27
2018-08-12T04:38:06.057Z,100842.22
2018-08-12T04:40:35.071Z,100839.20
2018-08-12T04:43:04.490Z,100828.12
2018-08-12T04:45:33.084Z,100832.19
2018-08-12T04:48:03.621Z,100835.62
2018-08-12T04:50:33.160Z,100830.78
2018-08-12T04:53:02.119Z,100833.48
2018-08-12T04:55:32.222Z,100826.63
2018-08-12T04:58:00.920Z,100827.70
2018-08-12T05:00:30.483Z,100832.41
2018-08-12T05:02:59.471Z,100837.73
2018-08-12T05:05:28.050Z,100835.72
2018-08-12T05:07:56.673Z,100831.48
2018-08-12T05:10:25.590Z,100835.68
2018-08-12T05:12:57.719Z,100829.80
2018-08-12T05:15:26.346Z,100829.55
2018-08-12T05:17:55.267Z,100822.42
2018-08-12T05:20:23.915Z,100826.06
2018-08-12T05:22:55.743Z,100825.33
2018-08-12T05:25:29.957Z,100824.41
2018-08-12T05:28:17.762Z,100829.59
2018-08-12T05:33:51.680Z,100823.45
2018-08-12T05:36:26.707Z,100823.83
2018-08-12T05:38:55.351Z,100820.67
2018-08-12T05:41:25.923Z,100816.59
2018-08-12T05:43:54.967Z,100821.65
2018-08-12T05:48:57.380Z,100802.03
2018-08-12T05:51:26.367Z,100803.85
2018-08-12T05:53:54.916Z,100806.17
2018-08-12T05:56:23.532Z,100802.75
2018-08-12T05:58:54.417Z,100803.61
2018-08-12T06:01:23.346Z,100802.13
2018-08-12T06:03:52.155Z,100800.68
2018-08-12T06:06:21.246Z,100803.19
2018-08-12T06:08:49.841Z,100802.07
2018-08-12T06:11:18.599Z,100798.69
2018-08-12T06:13:47.736Z,100794.66
2018-08-12T06:16:19.765Z,100796.20
2018-08-12T06:18:48.429Z,100798.34
2018-08-12T06:21:28.399Z,100800.88
2018-08-12T06:23:58.057Z,100803.36
2018-08-12T06:26:27.073Z,100792.08
2018-08-12T06:28:55.831Z,100786.36
2018-08-12T06:31:24.577Z,100786.17
2018-08-12T06:33:53.968Z,100782.89
2018-08-12T06:36:22.647Z,100778.74
2018-08-12T06:38:51.315Z,100780.70
2018-08-12T06:41:20.294Z,100790.93
2018-08-12T06:43:49.286Z,100782.32
2018-08-12T06:46:18.060Z,100781.41
2018-08-12T06:48:47.122Z,100783.31
2018-08-12T06:51:15.893Z,100782.18
2018-08-12T06:53:44.838Z,100776.73
2018-08-12T06:56:15.551Z,100777.83
2018-08-12T06:58:55.943Z,100777.38
2018-08-12T07:01:24.859Z,100782.48
2018-08-12T07:03:53.618Z,100779.84
2018-08-12T07:06:27.350Z,100778.40
2018-08-12T07:08:56.347Z,100776.84
2018-08-12T07:11:25.059Z,100774.77
2018-08-12T07:13:53.776Z,100772.58
2018-08-12T07:16:26.735Z,100766.78
2018-08-12T07:18:55.367Z,100768.38
2018-08-12T07:21:24.156Z,100768.52
2018-08-12T07:23:53.232Z,100757.98
2018-08-12T07:26:26.781Z,100759.94
2018-08-12T07:28:55.621Z,100763.27
2018-08-12T07:31:30.252Z,100759.69
2018-08-12T07:33:58.879Z,100756.80
2018-08-12T07:36:28.060Z,100754.70
2018-08-12T07:38:57.394Z,100750.05
2018-08-12T07:41:26.059Z,100752.70
2018-08-12T07:43:54.698Z,100753.09
2018-08-12T07:46:23.649Z,100748.42
2018-08-12T07:48:52.318Z,100742.89
2018-08-12T07:51:24.811Z,100742.42
2018-08-12T07:53:53.436Z,100741.20
2018-08-12T07:56:28.163Z,100733.48
2018-08-12T07:58:57.331Z,100740.70
2018-08-12T08:01:31.754Z,100739.60
2018-08-12T08:04:00.991Z,100738.67
2018-08-12T08:06:29.589Z,100735.52
2018-08-12T08:08:58.212Z,100736.05
2018-08-12T08:11:27.338Z,100732.75
2018-08-12T08:13:58.212Z,100728.76
2018-08-12T08:16:26.806Z,100724.39
2018-08-12T08:18:55.879Z,100724.94
2018-08-12T08:21:24.484Z,100724.94
2018-08-12T08:23:53.350Z,100714.73
2018-08-12T08:26:22.503Z,100722.11
2018-08-12T08:28:54.952Z,100719.38
2018-08-12T08:31:23.995Z,100713.51
2018-08-12T08:33:52.847Z,100713.78
2018-08-12T08:36:21.596Z,100713.28
2018-08-12T08:39:09.007Z,100713.38
2018-08-12T08:41:39.175Z,100708.30
2018-08-12T08:44:07.935Z,100706.00
2018-08-12T08:46:36.559Z,100705.89
2018-08-12T08:49:07.048Z,100699.98
2018-08-12T08:51:35.877Z,100699.22
2018-08-12T08:54:05.166Z,100698.01
2018-08-12T08:56:39.013Z,100693.31
2018-08-12T08:59:07.572Z,100688.81
2018-08-12T09:01:36.223Z,100696.80
2018-08-12T09:04:05.803Z,100685.89
2018-08-12T09:06:51.318Z,100678.59
2018-08-12T09:09:21.235Z,100677.20
2018-08-12T09:14:35.258Z,100675.58
2018-08-12T09:17:04.266Z,100670.83
2018-08-12T09:19:32.867Z,100670.39
2018-08-12T09:22:03.395Z,100667.23
2018-08-12T09:24:38.132Z,100662.86
2018-08-12T09:27:06.731Z,100654.63
2018-08-12T09:29:35.289Z,100654.95
2018-08-12T09:32:06.133Z,100652.16
2018-08-12T09:34:35.412Z,100655.62
2018-08-12T09:37:04.093Z,100648.02
2018-08-12T09:39:32.792Z,100652.66
2018-08-12T09:42:03.837Z,100648.18
2018-08-12T09:44:35.990Z,100638.47
2018-08-12T09:47:04.964Z,100646.73
2018-08-12T09:49:34.754Z,100639.75
2018-08-12T09:52:09.500Z,100640.06
2018-08-12T09:54:38.724Z,100629.20
2018-08-12T09:57:10.727Z,100628.54
2018-08-12T09:59:39.295Z,100625.52
2018-08-12T10:02:08.836Z,100624.20
2018-08-12T10:04:37.531Z,100618.16
2018-08-12T10:07:11.229Z,100620.30
2018-08-12T10:09:40.476Z,100620.24
2018-08-12T10:12:09.526Z,100612.80
2018-08-12T10:14:44.152Z,100608.91
2018-08-12T10:17:13.057Z,100607.27
2018-08-12T10:19:41.763Z,100606.16
2018-08-12T10:22:10.916Z,100601.00
2018-08-12T10:24:39.935Z,100600.41
2018-08-12T10:27:08.585Z,100605.56
2018-08-12T10:29:37.577Z,100597.11
2018-08-12T10:32:06.220Z,100585.00
2018-08-12T10:34:34.820Z,100587.11
2018-08-12T10:37:04.068Z,100582.50
2018-08-12T10:39:32.782Z,100575.02
2018-08-12T10:42:02.045Z,100575.84
2018-08-12T10:44:31.295Z,100577.05
2018-08-12T10:46:59.964Z,100562.66
2018-08-12T10:49:28.554Z,100557.95
2018-08-12T10:51:57.762Z,100559.05
2018-08-12T10:54:26.447Z,100551.41
2018-08-12T10:59:34.759Z,100542.30
2018-08-12T11:02:04.671Z,100538.39
2018-08-12T11:04:33.371Z,100538.34
2018-08-12T11:07:03.000Z,100532.00
2018-08-12T11:09:31.792Z,100535.95
2018-08-12T11:12:00.647Z,100530.62
2018-08-12T11:14:37.491Z,100531.92
2018-08-12T11:17:06.187Z,100521.65
2018-08-12T11:22:10.336Z,100515.47
2018-08-12T11:24:39.204Z,100507.72
2018-08-12T11:27:08.686Z,100505.67
2018-08-12T11:29:37.291Z,100501.70
2018-08-12T11:32:06.035Z,100495.45
2018-08-12T11:34:34.964Z,100491.89
2018-08-12T11:37:06.025Z,100485.13
2018-08-12T11:39:35.295Z,100487.52
2018-08-12T11:42:10.546Z,100479.67
2018-08-12T11:44:40.196Z,100473.92
2018-08-12T11:47:09.359Z,100467.14
2018-08-12T11:49:38.593Z,100471.95
2018-08-12T11:52:07.576Z,100469.09
2018-08-12T11:54:36.187Z,100459.47
2018-08-12T11:57:05.343Z,100456.25
2018-08-12T11:59:34.239Z,100459.75
2018-08-12T12:02:05.056Z,100450.55
2018-08-12T12:04:34.284Z,100449.35
2018-08-12T12:07:06.683Z,100453.58
2018-08-12T12:09:35.419Z,100449.94
2018-08-12T12:12:07.388Z,100442.75
2018-08-12T12:14:36.119Z,100438.78
2018-08-12T12:17:12.258Z,100426.97
2018-08-12T12:19:41.452Z,100429.85
2018-08-12T12:22:10.115Z,100424.77
2018-08-12T12:24:39.332Z,100424.64
2018-08-12T12:27:09.280Z,100413.83
2018-08-12T12:29:38.057Z,100414.56
2018-08-12T12:32:07.260Z,100412.34
2018-08-12T12:34:35.921Z,100404.78
2018-08-12T12:37:04.607Z,100403.69
2018-08-12T12:39:33.775Z,100398.84
2018-08-12T12:42:09.076Z,100392.79
2018-08-12T12:44:37.882Z,100384.88
2018-08-12T12:47:11.491Z,100387.13
2018-08-12T12:49:40.279Z,100382.73
2018-08-12T12:52:10.004Z,100379.37
2018-08-12T12:54:38.764Z,100377.05
2018-08-12T12:57:07.588Z,100363.75
2018-08-12T12:59:36.868Z,100363.03
2018-08-12T13:02:10.719Z,100365.91
2018-08-12T13:04:39.648Z,100355.19
2018-08-12T13:07:09.741Z,100355.80
2018-08-12T13:09:40.111Z,100346.29
2018-08-12T13:12:17.105Z,100345.03
2018-08-12T13:14:49.556Z,100337.48
2018-08-12T13:17:18.427Z,100339.52
2018-08-12T13:19:56.541Z,100332.50
2018-08-12T13:22:25.537Z,100327.12
2018-08-12T13:24:54.196Z,100320.42
2018-08-12T13:29:46.920Z,100308.89
2018-08-12T13:32:15.905Z,100307.44
2018-08-12T13:34:44.526Z,100307.04
2018-08-12T13:37:14.887Z,100303.97
2018-08-12T13:39:44.201Z,100303.38
2018-08-12T13:42:12.944Z,100296.30
2018-08-12T13:44:46.872Z,100287.45
2018-08-12T13:47:15.509Z,100296.03
2018-08-12T13:49:44.150Z,100285.28
2018-08-12T13:52:15.098Z,100296.06
2018-08-12T13:54:43.784Z,100284.52
2018-08-12T13:57:12.493Z,100280.39
2018-08-12T13:59:41.398Z,100273.49
2018-08-12T14:02:10.573Z,100266.61
2018-08-12T14:04:39.327Z,100270.91
2018-08-12T14:07:18.267Z,100263.17
2018-08-12T14:09:47.101Z,100252.70
2018-08-12T14:12:18.568Z,100251.00
2018-08-12T14:14:48.489Z,100251.15
2018-08-12T14:17:17.586Z,100239.89
2018-08-12T14:19:46.294Z,100228.31
2018-08-12T14:22:15.341Z,100219.52
2018-08-12T14:24:44.085Z,100212.52
2018-08-12T14:27:12.761Z,100215.06
2018-08-12T14:29:42.116Z,100206.32
2018-08-12T14:32:10.773Z,100214.05
2018-08-12T14:34:39.479Z,100207.58
2018-08-12T14:37:08.952Z,100190.06
2018-08-12T14:39:38.114Z,100193.66
2018-08-12T14:42:06.792Z,100186.31
2018-08-12T14:44:35.920Z,100191.44
2018-08-12T14:47:04.691Z,100191.53
2018-08-12T14:49:33.481Z,100182.00
2018-08-12T14:52:03.801Z,100183.95
2018-08-12T14:54:36.364Z,100176.98
2018-08-12T14:57:05.002Z,100174.45
2018-08-12T14:59:34.102Z,100173.09
2018-08-12T15:02:03.719Z,100165.23
2018-08-12T15:04:32.344Z,100162.29
2018-08-12T15:07:01.675Z,100166.39
2018-08-12T15:09:34.881Z,100155.91
2018-08-12T15:12:04.406Z,100152.27
2018-08-12T15:14:33.545Z,100144.83
2018-08-12T15:17:02.208Z,100150.34
2018-08-12T15:19:32.745Z,100142.77
2018-08-12T15:22:03.300Z,100134.09
2018-08-12T15:24:31.885Z,100130.30
2018-08-12T15:27:00.999Z,100121.77
2018-08-12T15:29:30.111Z,100122.41
2018-08-12T15:31:58.690Z,100115.00
2018-08-12T15:34:27.716Z,100113.11
2018-08-12T15:36:57.014Z,100106.56
2018-08-12T15:39:25.529Z,100099.70
2018-08-12T15:41:55.066Z,100097.45
2018-08-12T15:44:23.675Z,100096.71
2018-08-12T15:46:58.256Z,100096.09
2018-08-12T15:52:15.199Z,100088.25
2018-08-12T15:54:44.127Z,100079.28
2018-08-12T15:57:12.779Z,100079.23
2018-08-12T15:59:41.377Z,100077.09
2018-08-12T16:02:10.473Z,100078.39
2018-08-12T16:04:41.148Z,100070.06
2018-08-12T16:07:10.515Z,100073.73
2018-08-12T16:09:39.429Z,100069.48
2018-08-12T16:12:09.148Z,100066.81
2018-08-12T16:14:37.877Z,100057.27
2018-08-12T16:17:07.211Z,100050.79
2018-08-12T16:19:36.141Z,100056.33
2018-08-12T16:22:08.544Z,100056.50
2018-08-12T16:24:37.490Z,100051.33
2018-08-12T16:27:06.312Z,100046.78
2018-08-12T16:29:35.043Z,100043.89
2018-08-12T16:32:05.969Z,100048.83
2018-08-12T16:34:34.641Z,100043.09
2018-08-12T16:37:03.962Z,100031.17
2018-08-12T16:39:38.144Z,100036.52
2018-08-12T16:42:06.834Z,100034.41
2018-08-12T16:44:37.127Z,100027.67
2018-08-12T16:47:06.705Z,100025.63
2018-08-12T16:49:35.313Z,100019.81
2018-08-12T16:52:04.784Z,100022.01
2018-08-12T16:54:33.805Z,100016.63
2018-08-12T16:57:02.972Z,100022.36
2018-08-12T16:59:32.659Z,100014.61
2018-08-12T17:02:02.483Z,100014.28
2018-08-12T17:04:34.174Z,100013.41
2018-08-12T17:07:02.873Z,100007.20
2018-08-12T17:09:31.684Z,100001.50
2018-08-12T17:12:00.438Z,100003.11
2018-08-12T17:14:29.076Z,99998.47
2018-08-12T17:16:57.714Z,100003.06
2018-08-12T17:19:26.756Z,100001.30
2018-08-12T17:21:55.396Z,99993.80
2018-08-12T17:24:24.012Z,100002.27
2018-08-12T17:26:53.055Z,99990.36
2018-08-12T17:29:21.688Z,99987.41
2018-08-12T17:31:50.362Z,99988.00
2018-08-12T17:34:19.493Z,99981.09
2018-08-12T17:36:48.153Z,99979.84
2018-08-12T17:39:16.949Z,99975.75
2018-08-12T17:41:46.185Z,99973.80
2018-08-12T17:44:14.850Z,99979.64
2018-08-12T17:46:43.420Z,99971.30
2018-08-12T17:49:12.362Z,99970.16
2018-08-12T17:51:45.924Z,99970.22
2018-08-12T17:54:14.768Z,99968.65
2018-08-12T17:56:43.948Z,99970.47
2018-08-12T17:59:12.595Z,99971.58
2018-08-12T18:01:41.399Z,99968.78
2018-08-12T18:04:22.654Z,99971.36
2018-08-12T18:06:51.324Z,99979.06
2018-08-12T18:09:19.994Z,99973.76
2018-08-12T18:11:49.095Z,99971.97
2018-08-12T18:14:17.960Z,99980.45
2018-08-12T18:16:57.704Z,99978.80
2018-08-12T18:19:26.827Z,99983.59
2018-08-12T18:22:01.895Z,99983.81
2018-08-12T18:24:30.551Z,99984.14
2018-08-12T18:27:06.779Z,99985.77
2018-08-12T18:29:35.458Z,99980.22
2018-08-12T18:32:09.455Z,99977.51
2018-08-12T18:34:38.589Z,99981.05
2018-08-12T18:37:12.204Z,99977.32
2018-08-12T18:39:41.062Z,99978.23
2018-08-12T18:42:10.022Z,99982.70
2018-08-12T18:44:38.749Z,99978.80
2018-08-12T18:47:09.440Z,99975.41
2018-08-12T18:49:38.447Z,99973.78
2018-08-12T18:52:07.060Z,99971.65
2018-08-12T18:54:35.709Z,99975.39
2018-08-12T18:57:04.964Z,99973.15
2018-08-12T18:59:33.820Z,99974.81
2018-08-12T19:02:04.290Z,99972.67
2018-08-12T19:04:39.632Z,99971.49
2018-08-12T19:07:08.642Z,99973.27
2018-08-12T19:09:37.730Z,99980.13
2018-08-12T19:12:06.961Z,99982.89
2018-08-12T19:17:04.798Z,99977.47
2018-08-12T19:19:34.892Z,99979.02
2018-08-12T19:22:09.355Z,99986.34
2018-08-12T19:24:38.143Z,99985.59
2018-08-12T19:27:08.173Z,99983.84
2018-08-12T19:29:36.800Z,99988.71
2018-08-12T19:32:06.669Z,99986.34
2018-08-12T19:34:37.143Z,99988.13
2018-08-12T19:37:06.432Z,99988.03
2018-08-12T19:39:35.247Z,99983.58
2018-08-12T19:42:05.932Z,99984.52
2018-08-12T19:44:35.127Z,99982.01
2018-08-12T19:47:04.203Z,99982.62
2018-08-12T19:49:32.825Z,99981.56
2018-08-12T19:52:03.560Z,99985.11
2018-08-12T19:54:36.465Z,99976.78
2018-08-12T19:57:05.832Z,99974.80
2018-08-12T19:59:35.154Z,99971.80
2018-08-12T20:02:10.053Z,99966.50
2018-08-12T20:04:50.820Z,99966.70
2018-08-12T20:07:23.578Z,99967.31
2018-08-12T20:09:52.459Z,99959.31
2018-08-12T20:12:21.070Z,99962.63
2018-08-12T20:14:50.154Z,99954.84
2018-08-12T20:17:21.927Z,99952.02
2018-08-12T20:19:51.262Z,99952.63
2018-08-12T20:22:20.367Z,99949.16
2018-08-12T20:24:48.941Z,99949.02
2018-08-12T20:27:17.780Z,99947.69
2018-08-12T20:29:46.514Z,99947.22
2018-08-12T20:32:17.428Z,99950.02
2018-08-12T20:34:46.065Z,99949.20
2018-08-12T20:37:14.907Z,99949.84
2018-08-12T20:39:43.556Z,99948.28
2018-08-12T20:42:12.207Z,99945.80
2018-08-12T20:44:41.312Z,99947.09
2018-08-12T20:47:10.374Z,99939.67
2018-08-12T20:49:40.051Z,99947.56
2018-08-12T20:52:09.449Z,99940.45
2018-08-12T20:54:37.982Z,99943.14
2018-08-12T20:57:06.544Z,99946.05
2018-08-12T20:59:40.072Z,99945.93
2018-08-12T21:02:08.762Z,99943.44
2018-08-12T21:04:40.788Z,99937.75
2018-08-12T21:07:09.507Z,99935.14
2018-08-12T21:09:38.123Z,99940.23
2018-08-12T21:12:07.030Z,99934.42
2018-08-12T21:14:38.707Z,99937.67
2018-08-12T21:17:07.332Z,99935.64
2018-08-12T21:19:38.976Z,99938.98
2018-08-12T21:22:13.123Z,99934.42
2018-08-12T21:24:41.766Z,99934.55
2018-08-12T21:27:10.816Z,99930.84
2018-08-12T21:29:44.268Z,99936.66
2018-08-12T21:32:12.881Z,99935.47
2018-08-12T21:34:42.007Z,99937.23
2018-08-12T21:37:10.604Z,99930.66
2018-08-12T21:39:39.298Z,99932.42
2018-08-12T21:42:08.446Z,99930.19
2018-08-12T21:44:47.999Z,99930.77
2018-08-12T21:47:16.606Z,99937.38
2018-08-12T21:49:45.986Z,99936.94
2018-08-12T21:54:36.383Z,99943.19
2018-08-12T21:59:42.054Z,99944.34
2018-08-12T22:02:11.513Z,99942.77
2018-08-12T22:07:20.405Z,99940.98
2018-08-12T22:09:49.090Z,99938.49
2018-08-12T22:12:17.831Z,99937.08
2018-08-12T22:14:46.909Z,99942.53
2018-08-12T22:17:15.632Z,99943.88
2018-08-12T22:19:44.318Z,99944.45
2018-08-12T22:22:13.356Z,99942.23
2018-08-12T22:24:42.002Z,99945.28
2018-08-12T22:27:10.679Z,99937.28
2018-08-12T22:29:40.110Z,99941.25
2018-08-12T22:32:09.341Z,99933.74
2018-08-12T22:34:38.786Z,99937.70
2018-08-12T22:37:07.373Z,99932.73
2018-08-12T22:39:36.094Z,99936.53
2018-08-12T22:42:06.207Z,99934.47
2018-08-12T22:44:37.510Z,99932.78
2018-08-12T22:47:06.151Z,99929.05
2018-08-12T22:49:35.271Z,99928.34
2018-08-12T22:52:05.256Z,99926.05
2018-08-12T22:54:33.952Z,99930.03
2018-08-12T22:57:03.237Z,99921.86
2018-08-12T22:59:31.759Z,99916.29
2018-08-12T23:02:03.383Z,99912.70
2018-08-12T23:04:31.964Z,99915.13
2018-08-12T23:07:07.481Z,99914.97
2018-08-12T23:09:36.477Z,99913.33
2018-08-12T23:12:05.915Z,99908.70
2018-08-12T23:14:34.558Z,99911.91
2018-08-12T23:17:08.999Z,99912.93
2018-08-12T23:19:37.590Z,99907.38
2018-08-12T23:22:08.091Z,99913.20
2018-08-12T23:24:36.633Z,99911.05
2018-08-12T23:27:05.346Z,99917.45
2018-08-12T23:29:34.241Z,99918.13
2018-08-12T23:32:03.627Z,99916.45
2018-08-12T23:34:33.608Z,99922.20
2018-08-12T23:37:02.959Z,99916.45
2018-08-12T23:42:12.222Z,99917.22
2018-08-12T23:44:40.864Z,99919.21
2018-08-12T23:47:15.575Z,99915.61
2018-08-12T23:49:44.316Z,99912.98
2018-08-12T23:52:13.117Z,99915.23
2018-08-12T23:54:42.494Z,99906.62
2018-08-12T23:57:11.155Z,99896.05
2018-08-12T23:59:43.991Z,99892.06
